Time;durP1;ratioP1;P1;durP2;ratioP2;P2;SDS_P1;SDS_P2;PMS_P1;PMS_P2;Temp;Humidity;BMP_temperature;BMP_pressure;BME280_temperature;BME280_humidity;BME280_pressure;Samples;Min_cycle;Max_cycle;Signal;HPM_P1;HPM_P2
2023/11/06 00:01:16;;;;;;;2.88;1.40;;;;;;;9.58;100.00;98484.06;5025625;28;20048;-78
2023/11/06 00:03:43;;;;;;;3.08;1.15;;;;;;;9.56;100.00;98485.03;5025450;28;20117;-76
2023/11/06 00:06:11;;;;;;;2.38;1.50;;;;;;;9.52;100.00;98489.53;5012573;28;20037;-78
2023/11/06 00:08:38;;;;;;;4.43;1.90;;;;;;;9.49;100.00;98484.44;5034453;28;20667;-79
2023/11/06 00:11:05;;;;;;;1.83;1.42;;;;;;;9.51;100.00;98493.03;5034300;28;20037;-82
2023/11/06 00:13:32;;;;;;;3.78;1.50;;;;;;;9.51;100.00;98487.81;5042353;28;20551;-78
2023/11/06 00:15:58;;;;;;;1.98;1.30;;;;;;;9.58;100.00;98502.34;5030413;28;20051;-80
2023/11/06 00:18:25;;;;;;;10.23;2.05;;;;;;;9.59;100.00;98495.34;5029188;28;20072;-78
2023/11/06 00:20:51;;;;;;;6.00;1.42;;;;;;;9.67;100.00;98514.16;5028764;28;20095;-77
2023/11/06 00:23:19;;;;;;;12.05;2.08;;;;;;;9.64;100.00;98500.41;5055937;28;20077;-78
2023/11/06 00:25:46;;;;;;;4.40;1.60;;;;;;;9.61;100.00;98509.22;5023835;28;20447;-78
2023/11/06 00:28:12;;;;;;;3.08;1.67;;;;;;;9.53;100.00;98514.75;5046413;28;20038;-80
2023/11/06 00:30:39;;;;;;;4.80;2.00;;;;;;;9.50;100.00;98512.22;5032622;28;20234;-77
2023/11/06 00:33:06;;;;;;;2.72;1.85;;;;;;;9.47;100.00;98525.41;5023768;28;20535;-80
2023/11/06 00:35:34;;;;;;;2.85;1.83;;;;;;;9.41;100.00;98520.41;5023466;28;20038;-80
2023/11/06 00:38:02;;;;;;;4.30;2.17;;;;;;;9.41;100.00;98538.69;5041842;28;20038;-80
2023/11/06 00:40:29;;;;;;;3.88;1.30;;;;;;;9.38;100.00;98549.28;5020909;28;20041;-81
2023/11/06 00:42:57;;;;;;;4.18;1.70;;;;;;;9.35;100.00;98552.84;5021008;28;20056;-80
2023/11/06 00:45:24;;;;;;;3.20;1.90;;;;;;;9.32;100.00;98552.97;5024636;28;20053;-79
2023/11/06 00:47:51;;;;;;;5.45;1.77;;;;;;;9.31;100.00;98564.31;5020201;28;20109;-80
2023/11/06 00:50:18;;;;;;;8.57;2.08;;;;;;;9.29;100.00;98555.69;5021474;28;20160;-79
2023/11/06 00:52:45;;;;;;;4.50;1.65;;;;;;;9.38;100.00;98565.78;5023024;28;20096;-78
2023/11/06 00:55:11;;;;;;;5.05;2.03;;;;;;;9.43;100.00;98576.06;5024854;28;20037;-80
2023/11/06 00:57:38;;;;;;;4.55;2.00;;;;;;;9.44;100.00;98569.94;5038619;28;20111;-79
2023/11/06 01:00:10;;;;;;;5.82;1.38;;;;;;;9.46;100.00;98581.16;5021978;28;20439;-76
2023/11/06 01:02:40;;;;;;;5.60;1.58;;;;;;;9.41;100.00;98580.47;5015502;28;20046;-82
2023/11/06 01:05:07;;;;;;;4.68;1.58;;;;;;;9.38;100.00;98581.44;5019738;28;20157;-77
2023/11/06 01:07:33;;;;;;;3.03;1.70;;;;;;;9.36;100.00;98585.03;5037052;28;20052;-81
2023/11/06 01:10:01;;;;;;;5.82;1.52;;;;;;;9.35;100.00;98588.56;5023373;28;20045;-79
2023/11/06 01:12:28;;;;;;;3.25;1.45;;;;;;;9.33;100.00;98582.53;5018458;28;20046;-77
2023/11/06 01:14:54;;;;;;;2.17;1.55;;;;;;;9.34;100.00;98592.09;5023374;28;20049;-81
2023/11/06 01:17:21;;;;;;;4.47;1.70;;;;;;;9.31;100.00;98587.81;5026625;28;20652;-80
2023/11/06 01:19:47;;;;;;;1.70;1.23;;;;;;;9.34;100.00;98592.09;5020266;28;20050;-76
2023/11/06 01:22:16;;;;;;;2.67;1.70;;;;;;;9.41;100.00;98598.75;5022803;28;20048;-77
2023/11/06 01:24:45;;;;;;;8.98;2.63;;;;;;;9.39;100.00;98609.28;5023003;28;20053;-77
2023/11/06 01:27:11;;;;;;;1.80;1.50;;;;;;;9.36;100.00;98604.16;5022622;28;20099;-77
2023/11/06 01:29:39;;;;;;;7.28;1.92;;;;;;;9.39;100.00;98609.28;5021760;28;20198;-78
2023/11/06 01:32:06;;;;;;;3.92;1.58;;;;;;;9.49;100.00;98614.16;5021666;28;20145;-76
2023/11/06 01:34:33;;;;;;;3.40;1.45;;;;;;;9.49;100.00;98627.22;5022299;28;20054;-79
2023/11/06 01:36:59;;;;;;;6.03;3.05;;;;;;;9.48;100.00;98633.34;5028563;28;20118;-78
2023/11/06 01:39:26;;;;;;;5.82;1.85;;;;;;;9.52;100.00;98629.72;5023381;28;20108;-78
2023/11/06 01:41:53;;;;;;;6.80;1.92;;;;;;;9.54;100.00;98633.97;5021665;28;20049;-81
2023/11/06 01:44:23;;;;;;;4.65;2.08;;;;;;;9.54;100.00;98644.44;5022540;28;20053;-78
2023/11/06 01:46:54;;;;;;;3.72;2.65;;;;;;;9.51;100.00;98635.84;5019731;28;20049;-79
2023/11/06 01:49:22;;;;;;;4.22;2.50;;;;;;;9.46;100.00;98643.84;5023563;28;20048;-80
2023/11/06 01:51:50;;;;;;;6.25;2.05;;;;;;;9.46;100.00;98645.63;5019756;28;20041;-78
2023/11/06 01:54:18;;;;;;;5.07;2.20;;;;;;;9.48;100.00;98651.63;5040019;28;20041;-77
2023/11/06 01:56:45;;;;;;;5.75;2.67;;;;;;;9.62;100.00;98651.13;5022708;28;20041;-78
2023/11/06 01:59:12;;;;;;;1.90;1.80;;;;;;;9.64;100.00;98660.59;5022237;28;20049;-77
2023/11/06 02:01:45;;;;;;;5.53;2.35;;;;;;;9.67;100.00;98657.03;5019734;28;20386;-81
2023/11/06 02:04:14;;;;;;;6.18;2.33;;;;;;;9.73;100.00;98655.03;5017639;28;20051;-80
2023/11/06 02:06:43;;;;;;;5.20;1.83;;;;;;;9.79;100.00;98659.19;5007028;28;20472;-78
2023/11/06 02:09:10;;;;;;;3.95;1.73;;;;;;;9.82;100.00;98664.28;5021922;28;20541;-78
2023/11/06 02:11:37;;;;;;;5.97;1.92;;;;;;;9.88;100.00;98678.88;5023785;28;20409;-79
2023/11/06 02:14:03;;;;;;;4.75;1.92;;;;;;;9.86;100.00;98668.47;5024530;28;20053;-80
2023/11/06 02:16:33;;;;;;;6.28;1.83;;;;;;;9.91;100.00;98679.63;5024567;28;20065;-78
2023/11/06 02:19:03;;;;;;;4.55;1.90;;;;;;;9.90;100.00;98690.13;5022757;28;20049;-78
2023/11/06 02:21:35;;;;;;;10.18;3.42;;;;;;;9.88;100.00;98690.19;5022741;28;20041;-79
2023/11/06 02:24:03;;;;;;;4.80;3.58;;;;;;;9.84;100.00;98685.13;5004341;28;20178;-77
2023/11/06 02:26:30;;;;;;;2.20;2.00;;;;;;;9.83;100.00;98688.66;5023762;28;20207;-80
2023/11/06 02:28:57;;;;;;;9.57;2.50;;;;;;;9.76;100.00;98695.88;5033259;28;20045;-78
2023/11/06 02:31:23;;;;;;;9.07;2.70;;;;;;;9.71;100.00;98697.78;5022360;28;20043;-77
2023/11/06 02:33:50;;;;;;;2.97;2.10;;;;;;;9.66;100.00;98703.22;5020173;28;20049;-77
2023/11/06 02:36:16;;;;;;;3.95;2.88;;;;;;;9.68;100.00;98703.16;5022017;28;20215;-76
2023/11/06 02:38:43;;;;;;;6.28;3.38;;;;;;;9.73;100.00;98711.66;5021833;28;20053;-77
2023/11/06 02:41:11;;;;;;;4.05;2.60;;;;;;;9.70;100.00;98710.03;5020229;28;21164;-77
2023/11/06 02:43:37;;;;;;;2.58;1.95;;;;;;;9.72;100.00;98709.97;5021501;28;20053;-76
2023/11/06 02:46:04;;;;;;;9.52;2.58;;;;;;;9.70;100.00;98715.25;5034739;28;20486;-76
2023/11/06 02:48:31;;;;;;;4.28;2.20;;;;;;;9.62;100.00;98713.81;5022707;28;20120;-81
2023/11/06 02:50:57;;;;;;;6.85;2.67;;;;;;;9.58;100.00;98713.94;5018704;28;20137;-78
2023/11/06 02:53:25;;;;;;;2.97;2.20;;;;;;;9.57;100.00;98714.00;5019927;28;20145;-80
2023/11/06 02:55:53;;;;;;;2.78;2.25;;;;;;;9.57;100.00;98714.84;5018650;28;20141;-77
2023/11/06 02:58:21;;;;;;;4.72;2.35;;;;;;;9.52;100.00;98715.91;5037633;28;20037;-78
2023/11/06 03:00:48;;;;;;;8.95;2.47;;;;;;;9.52;100.00;98716.75;5034692;28;20500;-77
2023/11/06 03:03:15;;;;;;;4.80;2.25;;;;;;;9.59;100.00;98728.72;5019311;28;20140;-76
2023/11/06 03:05:41;;;;;;;3.70;2.92;;;;;;;9.58;100.00;98732.22;5020432;28;20183;-81
2023/11/06 03:08:08;;;;;;;3.83;1.92;;;;;;;9.54;100.00;98735.84;5005887;28;20045;-77
2023/11/06 03:10:34;;;;;;;4.53;2.17;;;;;;;9.56;100.00;98744.47;5030593;28;20120;-78
2023/11/06 03:13:01;;;;;;;7.72;2.78;;;;;;;9.56;100.00;98747.06;5017701;28;20049;-81
2023/11/06 03:15:28;;;;;;;7.72;2.03;;;;;;;9.57;100.00;98747.94;5023832;28;20064;-79
2023/11/06 03:17:54;;;;;;;5.63;2.85;;;;;;;9.57;100.00;98746.19;5025448;28;20048;-77
2023/11/06 03:20:21;;;;;;;4.05;3.30;;;;;;;9.55;100.00;98754.97;5045027;28;20506;-76
2023/11/06 03:22:47;;;;;;;6.93;3.35;;;;;;;9.59;100.00;98757.44;5026684;28;20361;-81
2023/11/06 03:25:15;;;;;;;5.22;2.60;;;;;;;9.56;100.00;98760.13;5026205;28;20116;-80
2023/11/06 03:27:42;;;;;;;4.90;2.58;;;;;;;9.55;100.00;98762.81;5021250;28;20057;-80
2023/11/06 03:30:09;;;;;;;7.28;2.55;;;;;;;9.52;100.00;98765.53;5036282;28;20073;-78
2023/11/06 03:32:36;;;;;;;4.65;2.13;;;;;;;9.52;100.00;98766.38;5046412;28;20079;-78
2023/11/06 03:35:03;;;;;;;3.53;2.10;;;;;;;9.56;100.00;98767.13;5027688;28;20057;-78
2023/11/06 03:37:29;;;;;;;8.98;2.92;;;;;;;9.53;100.00;98775.06;5008146;28;20064;-78
2023/11/06 03:39:58;;;;;;;4.32;2.65;;;;;;;9.53;100.00;98781.16;5022671;28;20358;-79
2023/11/06 03:42:24;;;;;;;3.25;2.20;;;;;;;9.52;100.00;98770.78;5020827;28;20131;-78
2023/11/06 03:44:52;;;;;;;4.55;2.28;;;;;;;9.54;100.00;98787.22;5044169;28;20056;-78
2023/11/06 03:47:21;;;;;;;9.57;2.47;;;;;;;9.51;100.00;98792.56;5018817;28;20046;-79
2023/11/06 03:49:47;;;;;;;8.32;2.70;;;;;;;9.53;100.00;98789.00;5022568;28;20052;-81
2023/11/06 03:52:14;;;;;;;2.60;2.00;;;;;;;9.59;100.00;98796.63;5020469;28;20045;-79
2023/11/06 03:54:42;;;;;;;4.72;3.25;;;;;;;9.68;100.00;98790.19;5035723;28;20045;-79
2023/11/06 03:57:08;;;;;;;3.60;2.35;;;;;;;9.73;100.00;98798.72;5025186;28;20401;-79
2023/11/06 03:59:35;;;;;;;5.05;2.28;;;;;;;9.75;100.00;98789.09;5021263;28;20765;-81
2023/11/06 04:02:02;;;;;;;7.70;2.88;;;;;;;9.80;100.00;98801.13;5004986;28;20037;-77
2023/11/06 04:04:29;;;;;;;5.13;2.08;;;;;;;9.82;100.00;98807.19;5026973;28;20068;-79
2023/11/06 04:06:55;;;;;;;14.52;2.45;;;;;;;9.78;100.00;98803.81;5021930;28;20049;-81
2023/11/06 04:09:22;;;;;;;9.00;2.33;;;;;;;9.76;100.00;98798.66;5023403;28;20074;-78
2023/11/06 04:11:49;;;;;;;5.72;3.30;;;;;;;9.75;100.00;98802.16;5005966;28;20057;-82
2023/11/06 04:14:15;;;;;;;8.27;2.70;;;;;;;9.73;100.00;98803.13;5020928;28;20473;-78
2023/11/06 04:16:42;;;;;;;9.32;3.40;;;;;;;9.68;100.00;98805.03;5009369;28;20055;-77
2023/11/06 04:19:10;;;;;;;7.35;2.38;;;;;;;9.64;100.00;98808.66;5008105;28;20513;-80
2023/11/06 04:21:36;;;;;;;2.95;2.60;;;;;;;9.60;100.00;98818.38;5018880;28;20060;-78
2023/11/06 04:24:03;;;;;;;4.85;2.45;;;;;;;9.54;100.00;98821.19;5020245;28;20045;-78
2023/11/06 04:26:33;;;;;;;3.15;2.85;;;;;;;9.47;100.00;98819.69;5004852;28;20468;-79
2023/11/06 04:29:00;;;;;;;9.65;4.20;;;;;;;9.44;100.00;98836.31;5025340;28;20164;-77
2023/11/06 04:31:27;;;;;;;4.13;2.10;;;;;;;9.41;100.00;98828.56;5020470;28;20042;-79
2023/11/06 04:33:54;;;;;;;4.95;2.15;;;;;;;9.37;100.00;98837.41;5021059;28;20080;-83
2023/11/06 04:36:21;;;;;;;5.28;2.03;;;;;;;9.37;100.00;98842.63;5039686;28;20381;-78
2023/11/06 04:38:49;;;;;;;4.95;2.20;;;;;;;9.44;100.00;98846.78;5021346;28;20037;-78
2023/11/06 04:41:15;;;;;;;6.65;2.20;;;;;;;9.46;100.00;98849.31;5020868;28;20069;-79
2023/11/06 04:43:42;;;;;;;4.38;2.15;;;;;;;9.48;100.00;98860.56;5017379;28;20515;-80
2023/11/06 04:46:08;;;;;;;2.38;1.67;;;;;;;9.62;100.00;98863.59;5019164;28;20128;-80
2023/11/06 04:48:38;;;;;;;1.92;1.70;;;;;;;9.68;100.00;98859.91;5019399;28;20489;-79
2023/11/06 04:51:08;;;;;;;5.97;2.88;;;;;;;9.71;100.00;98857.19;5015493;28;20069;-77
2023/11/06 04:53:37;;;;;;;3.15;1.75;;;;;;;9.76;100.00;98855.25;5034609;28;20041;-78
2023/11/06 04:56:05;;;;;;;5.35;1.70;;;;;;;9.80;100.00;98861.25;5019380;28;20168;-79
2023/11/06 04:58:31;;;;;;;2.58;1.80;;;;;;;9.85;100.00;98870.63;5038135;28;20041;-75
2023/11/06 05:00:58;;;;;;;6.22;1.80;;;;;;;9.88;100.00;98872.28;5017671;28;20049;-78
2023/11/06 05:03:24;;;;;;;7.72;2.03;;;;;;;9.91;100.00;98877.41;5021197;28;20041;-81
2023/11/06 05:05:51;;;;;;;4.25;1.60;;;;;;;9.91;100.00;98875.63;5005509;28;20048;-76
2023/11/06 05:08:17;;;;;;;7.90;1.75;;;;;;;9.95;100.00;98876.38;5034435;28;20129;-78
2023/11/06 05:10:44;;;;;;;5.60;1.85;;;;;;;9.93;100.00;98872.97;5017612;28;20076;-78
2023/11/06 05:13:11;;;;;;;2.85;2.08;;;;;;;9.93;100.00;98871.22;5018366;28;20038;-76
2023/11/06 05:15:37;;;;;;;6.80;2.65;;;;;;;9.88;100.00;98877.50;5016269;28;20103;-78
2023/11/06 05:18:05;;;;;;;3.47;2.17;;;;;;;9.84;100.00;98871.53;5020100;28;20044;-81
2023/11/06 05:20:32;;;;;;;4.93;2.65;;;;;;;9.79;100.00;98873.47;5022965;28;20429;-80
2023/11/06 05:22:59;;;;;;;10.10;2.28;;;;;;;9.75;100.00;98887.50;5021974;28;20049;-80
2023/11/06 05:25:28;;;;;;;3.90;2.05;;;;;;;9.68;100.00;98879.03;5041540;28;20037;-83
2023/11/06 05:27:55;;;;;;;5.82;2.17;;;;;;;9.68;100.00;98881.66;5023217;28;20565;-79
2023/11/06 05:30:22;;;;;;;3.00;1.90;;;;;;;9.66;100.00;98888.69;5020983;28;20037;-77
2023/11/06 05:32:48;;;;;;;5.88;2.22;;;;;;;9.68;100.00;98878.19;5008290;28;20111;-79
2023/11/06 05:35:15;;;;;;;2.85;1.73;;;;;;;9.75;100.00;98897.97;5023456;28;20103;-79
2023/11/06 05:37:42;;;;;;;2.15;1.67;;;;;;;9.79;100.00;98906.56;5006721;28;20064;-76
2023/11/06 05:40:10;;;;;;;2.83;1.67;;;;;;;9.77;100.00;98915.31;5022296;28;20079;-80
2023/11/06 05:42:36;;;;;;;6.20;1.40;;;;;;;9.71;100.00;98910.31;5015143;28;20085;-75
2023/11/06 05:45:03;;;;;;;3.45;2.22;;;;;;;9.68;100.00;98922.59;5022018;28;20508;-77
2023/11/06 05:47:31;;;;;;;2.90;1.58;;;;;;;9.63;100.00;98917.53;5024089;28;20080;-81
2023/11/06 05:49:58;;;;;;;2.72;1.92;;;;;;;9.55;100.00;98925.59;5025358;28;20111;-80
2023/11/06 05:52:28;;;;;;;2.88;1.90;;;;;;;9.53;100.00;98934.41;5026944;28;20041;-79
2023/11/06 05:54:54;;;;;;;4.28;1.83;;;;;;;9.54;100.00;98941.34;5032740;28;20049;-79
2023/11/06 05:57:21;;;;;;;10.20;2.30;;;;;;;9.51;100.00;98936.22;5029502;28;20046;-81
2023/11/06 05:59:48;;;;;;;5.18;1.65;;;;;;;9.47;100.00;98948.53;5029808;28;20049;-76
2023/11/06 06:02:14;;;;;;;8.40;1.95;;;;;;;9.43;100.00;98946.91;5004349;28;20501;-77
2023/11/06 06:04:41;;;;;;;1.63;1.52;;;;;;;9.48;100.00;98946.75;5022649;28;20254;-77
2023/11/06 06:07:09;;;;;;;5.88;3.10;;;;;;;9.47;100.00;98951.13;5003164;28;20702;-79
2023/11/06 06:09:36;;;;;;;4.55;2.35;;;;;;;9.44;100.00;98961.69;5021350;28;20057;-81
2023/11/06 06:12:03;;;;;;;5.25;1.60;;;;;;;9.42;100.00;98947.81;5037331;28;20049;-79
2023/11/06 06:14:30;;;;;;;5.20;1.88;;;;;;;9.39;100.00;98955.75;5006342;28;20050;-81
2023/11/06 06:16:58;;;;;;;2.78;1.73;;;;;;;9.43;100.00;98967.81;5022589;28;20053;-78
2023/11/06 06:19:28;;;;;;;3.53;2.08;;;;;;;9.44;100.00;98969.53;5022537;28;20073;-77
2023/11/06 06:21:58;;;;;;;4.85;1.60;;;;;;;9.44;100.00;98977.34;5022281;28;20051;-77
2023/11/06 06:24:28;;;;;;;5.15;1.92;;;;;;;9.47;100.00;98973.78;5035533;28;20152;-80
2023/11/06 06:26:54;;;;;;;2.70;2.30;;;;;;;9.47;100.00;98979.03;5022006;28;20720;-77
2023/11/06 06:29:21;;;;;;;9.05;2.20;;;;;;;9.52;100.00;98982.34;5023710;28;20147;-79
2023/11/06 06:31:48;;;;;;;5.45;2.15;;;;;;;9.62;100.00;98993.34;5021889;28;20113;-77
2023/11/06 06:34:17;;;;;;;4.95;2.00;;;;;;;9.69;100.00;99010.53;5022779;28;20042;-81
2023/11/06 06:36:45;;;;;;;4.28;2.28;;;;;;;9.70;100.00;99001.78;5024466;28;20053;-77
2023/11/06 06:39:11;;;;;;;6.03;2.53;;;;;;;9.79;100.00;99008.47;5023038;28;20065;-77
2023/11/06 06:41:38;;;;;;;8.18;4.18;;;;;;;9.81;100.00;99015.38;5044513;28;20108;-81
2023/11/06 06:44:05;;;;;;;3.47;2.20;;;;;;;9.86;100.00;99015.22;5024420;28;20087;-76
2023/11/06 06:46:31;;;;;;;2.75;2.58;;;;;;;9.83;100.00;99025.75;5024969;28;20445;-81
2023/11/06 06:48:58;;;;;;;4.07;2.65;;;;;;;9.82;100.00;99031.91;5005702;28;20156;-77
2023/11/06 06:51:25;;;;;;;2.10;2.00;;;;;;;9.80;100.00;99046.78;5032906;28;20037;-78
2023/11/06 06:53:52;;;;;;;3.75;2.35;;;;;;;9.84;100.00;99046.66;5011101;28;20502;-79
2023/11/06 06:56:19;;;;;;;4.85;2.15;;;;;;;9.90;100.00;99051.66;5027853;28;20053;-80
2023/11/06 06:58:45;;;;;;;5.43;2.35;;;;;;;9.91;100.00;99061.22;5044038;28;20041;-78
2023/11/06 07:01:13;;;;;;;8.73;2.80;;;;;;;9.90;100.00;99064.72;5039836;28;20121;-78
2023/11/06 07:03:41;;;;;;;8.32;3.50;;;;;;;9.87;100.00;99062.22;5027442;28;20049;-79
2023/11/06 07:06:08;;;;;;;5.75;2.63;;;;;;;9.90;100.00;99067.34;5042812;28;20037;-77
2023/11/06 07:08:37;;;;;;;4.43;2.25;;;;;;;9.94;100.00;99071.56;5014332;28;20041;-77
2023/11/06 07:11:05;;;;;;;5.28;2.75;;;;;;;9.93;100.00;99080.34;5027949;28;20060;-80
2023/11/06 07:13:31;;;;;;;8.38;3.90;;;;;;;9.94;100.00;99081.16;5035287;28;20117;-78
2023/11/06 07:15:58;;;;;;;3.60;2.42;;;;;;;9.93;100.00;99082.06;5029318;28;20068;-77
2023/11/06 07:18:25;;;;;;;11.60;3.60;;;;;;;9.99;99.18;99086.28;5024449;28;20037;-78
2023/11/06 07:20:51;;;;;;;2.38;2.00;;;;;;;10.02;99.44;99091.38;5027680;28;20668;-78
2023/11/06 07:23:18;;;;;;;1.67;1.58;;;;;;;10.05;99.01;99094.75;5006757;28;20037;-76
2023/11/06 07:25:45;;;;;;;5.55;2.25;;;;;;;10.09;98.85;99099.00;5029284;28;20048;-78
2023/11/06 07:28:12;;;;;;;4.40;2.38;;;;;;;10.05;98.18;99089.53;5031924;28;20498;-78
2023/11/06 07:30:41;;;;;;;4.32;2.20;;;;;;;10.13;98.28;99102.38;5029844;28;20529;-79
2023/11/06 07:33:08;;;;;;;5.28;2.83;;;;;;;10.16;97.97;99104.88;5023876;28;20192;-79
2023/11/06 07:35:34;;;;;;;3.58;2.25;;;;;;;10.18;97.35;99107.44;5025412;28;20156;-80
2023/11/06 07:38:01;;;;;;;2.53;1.58;;;;;;;10.17;96.99;99108.31;5028181;28;20416;-82
2023/11/06 07:40:28;;;;;;;4.35;1.92;;;;;;;10.22;96.51;99109.91;5027385;28;20118;-83
2023/11/06 07:42:54;;;;;;;5.13;1.85;;;;;;;10.24;95.81;99125.53;5040818;28;20495;-78
2023/11/06 07:45:23;;;;;;;5.05;1.70;;;;;;;10.31;95.26;99119.22;5024095;28;20401;-76
2023/11/06 07:47:50;;;;;;;5.85;2.03;;;;;;;10.33;94.84;99127.03;5012866;28;20080;-78
2023/11/06 07:50:18;;;;;;;1.55;1.55;;;;;;;10.29;94.71;99139.34;5021044;28;20060;-83
2023/11/06 07:52:47;;;;;;;4.82;2.28;;;;;;;10.34;94.91;99134.81;5042508;28;20065;-78
2023/11/06 07:55:16;;;;;;;6.50;2.13;;;;;;;10.43;94.97;99131.91;5040448;28;20754;-79
2023/11/06 07:57:44;;;;;;;3.83;1.65;;;;;;;10.43;95.12;99141.53;5026610;28;20050;-77
2023/11/06 08:00:13;;;;;;;3.88;2.60;;;;;;;10.51;93.86;99142.13;5023001;28;20077;-78
2023/11/06 08:02:40;;;;;;;4.82;1.90;;;;;;;10.52;93.56;99138.63;5025748;28;20137;-78
2023/11/06 08:05:09;;;;;;;3.53;1.67;;;;;;;10.54;93.44;99152.50;5025298;28;20507;-77
2023/11/06 08:07:38;;;;;;;2.30;1.60;;;;;;;10.51;93.09;99157.00;5040523;28;20476;-79
2023/11/06 08:10:10;;;;;;;3.33;1.85;;;;;;;10.53;93.44;99155.16;5038290;28;20187;-81
2023/11/06 08:12:37;;;;;;;5.32;2.30;;;;;;;10.55;92.88;99169.06;5020135;28;20061;-80
2023/11/06 08:15:04;;;;;;;3.30;2.08;;;;;;;10.47;92.35;99164.09;5023232;28;20656;-80
2023/11/06 08:17:31;;;;;;;1.73;1.40;;;;;;;10.49;91.98;99162.25;5021746;28;20469;-80
2023/11/06 08:19:57;;;;;;;6.32;2.20;;;;;;;10.55;92.12;99174.28;5039169;28;20496;-79
2023/11/06 08:22:24;;;;;;;4.85;1.95;;;;;;;10.64;91.95;99176.59;5023974;28;20049;-78
2023/11/06 08:24:51;;;;;;;5.30;2.03;;;;;;;10.65;91.93;99182.69;5028271;28;20120;-77
2023/11/06 08:27:18;;;;;;;8.13;1.73;;;;;;;10.65;91.45;99185.31;5027079;28;20041;-78
2023/11/06 08:29:44;;;;;;;1.50;1.40;;;;;;;10.59;90.84;99196.84;5008856;28;20092;-77
2023/11/06 08:32:12;;;;;;;9.23;1.55;;;;;;;10.64;90.46;99201.91;5022880;28;20095;-80
2023/11/06 08:34:45;;;;;;;3.97;2.38;;;;;;;10.64;90.69;99202.78;5024045;28;20107;-80
2023/11/06 08:37:13;;;;;;;2.30;1.65;;;;;;;10.67;90.59;99202.66;5020514;28;20053;-83
2023/11/06 08:39:46;;;;;;;3.60;1.75;;;;;;;10.66;89.35;99207.97;5033138;28;20060;-82
2023/11/06 08:42:14;;;;;;;2.60;1.67;;;;;;;10.79;88.39;99206.63;5022218;28;20037;-79
2023/11/06 08:44:45;;;;;;;3.22;1.50;;;;;;;10.80;88.38;99220.59;5022426;28;20045;-80
2023/11/06 08:47:15;;;;;;;3.08;1.23;;;;;;;10.88;87.94;99221.19;5024493;28;20089;-78
2023/11/06 08:49:42;;;;;;;3.88;1.40;;;;;;;10.85;87.74;99218.69;5021913;28;20041;-78
2023/11/06 08:52:11;;;;;;;3.38;1.23;;;;;;;10.93;87.73;99225.34;5010306;28;20064;-78
2023/11/06 08:54:41;;;;;;;2.80;1.55;;;;;;;10.93;87.67;99222.75;5026117;28;20614;-82
2023/11/06 08:57:07;;;;;;;1.52;1.40;;;;;;;10.93;87.86;99220.13;5009014;28;20056;-79
2023/11/06 08:59:35;;;;;;;1.42;1.20;;;;;;;10.96;87.79;99229.63;5023266;28;20045;-78
2023/11/06 09:02:02;;;;;;;1.73;0.95;;;;;;;10.91;87.87;99239.41;5007226;28;20557;-77
2023/11/06 09:04:30;;;;;;;2.00;1.05;;;;;;;10.90;88.08;99241.19;5026376;28;20053;-78
2023/11/06 09:06:57;;;;;;;1.27;1.15;;;;;;;10.81;87.70;99249.34;5023658;28;20150;-77
2023/11/06 09:09:23;;;;;;;2.95;1.30;;;;;;;10.78;87.82;99252.06;5025477;28;20033;-84
2023/11/06 09:11:50;;;;;;;2.03;0.95;;;;;;;10.71;88.03;99258.41;5023787;28;20061;-81
2023/11/06 09:14:17;;;;;;;3.15;1.45;;;;;;;10.77;88.11;99258.19;5008246;28;20065;-78
2023/11/06 09:16:44;;;;;;;6.65;1.70;;;;;;;10.81;88.06;99270.28;5011277;28;20053;-81
2023/11/06 09:19:14;;;;;;;7.03;1.10;;;;;;;10.86;87.53;99264.88;5031969;28;20041;-82
2023/11/06 09:21:43;;;;;;;4.57;1.05;;;;;;;10.78;87.21;99275.63;5024780;28;20044;-82
2023/11/06 09:24:11;;;;;;;3.08;1.00;;;;;;;10.78;86.54;99274.75;5025524;28;20489;-77
2023/11/06 09:26:39;;;;;;;5.50;1.30;;;;;;;10.77;86.96;99276.53;5023908;28;20053;-77
2023/11/06 09:29:06;;;;;;;7.10;1.40;;;;;;;10.81;86.74;99282.50;5024365;28;20072;-85
2023/11/06 09:31:33;;;;;;;4.13;1.50;;;;;;;10.82;86.94;99284.22;5024884;28;20368;-75
2023/11/06 09:34:00;;;;;;;8.13;1.75;;;;;;;10.82;86.41;99295.56;5026716;28;20038;-78
2023/11/06 09:36:26;;;;;;;4.80;1.50;;;;;;;10.83;86.48;99299.88;5027181;28;20128;-77
2023/11/06 09:38:53;;;;;;;3.03;1.20;;;;;;;10.80;86.45;99294.75;5041494;28;20049;-81
2023/11/06 09:41:21;;;;;;;5.50;1.33;;;;;;;10.79;86.70;99307.88;5026292;28;20449;-77
2023/11/06 09:43:48;;;;;;;6.22;1.30;;;;;;;10.78;86.71;99314.00;5017842;28;20116;-81
2023/11/06 09:46:18;;;;;;;8.10;1.58;;;;;;;10.80;87.04;99315.69;5036118;28;20044;-80
2023/11/06 09:48:47;;;;;;;3.47;1.42;;;;;;;10.78;86.86;99307.03;5026489;28;20462;-81
2023/11/06 09:51:16;;;;;;;5.90;1.45;;;;;;;10.82;87.02;99326.09;5039727;28;20047;-82
2023/11/06 09:53:46;;;;;;;7.78;1.48;;;;;;;10.86;86.91;99315.50;5024656;28;20139;-78
2023/11/06 09:56:14;;;;;;;4.55;1.33;;;;;;;10.90;86.38;99329.34;5024956;28;20048;-78
2023/11/06 09:58:43;;;;;;;8.15;1.95;;;;;;;10.96;86.45;99317.81;5024708;28;20115;-83
2023/11/06 10:01:11;;;;;;;3.33;0.88;;;;;;;11.02;85.52;99321.09;5020381;28;20124;-79
2023/11/06 10:03:39;;;;;;;7.28;1.95;;;;;;;11.27;84.32;99322.91;5021060;28;20404;-80
2023/11/06 10:06:07;;;;;;;3.95;1.40;;;;;;;11.36;83.48;99322.59;5025427;28;20061;-77
2023/11/06 10:08:37;;;;;;;11.68;2.08;;;;;;;11.47;83.34;99327.50;5028154;28;20114;-78
2023/11/06 10:11:06;;;;;;;4.32;1.15;;;;;;;11.47;82.24;99326.63;5010063;28;20045;-77
2023/11/06 10:13:33;;;;;;;4.63;1.45;;;;;;;11.45;82.38;99337.16;5041483;28;20064;-77
2023/11/06 10:16:22;;;;;;;10.10;1.30;;;;;;;11.40;82.44;99339.06;5007516;28;20109;-77
2023/11/06 10:18:50;;;;;;;11.80;1.55;;;;;;;11.28;82.56;99339.47;5008390;28;20052;-77
2023/11/06 10:21:30;;;;;;;5.88;1.55;;;;;;;11.51;82.34;99334.34;5023129;28;20111;-77
2023/11/06 10:24:01;;;;;;;5.57;1.73;;;;;;;11.64;81.22;99347.00;5030587;28;20044;-78
2023/11/06 10:26:33;;;;;;;5.03;1.40;;;;;;;11.79;80.33;99338.63;5027644;28;20053;-77
2023/11/06 10:29:17;;;;;;;8.23;1.48;;;;;;;11.99;79.66;99335.31;5030370;28;20135;-80
2023/11/06 10:31:48;;;;;;;7.60;1.52;;;;;;;12.02;79.00;99336.97;5039517;28;20095;-78
2023/11/06 10:34:37;;;;;;;8.68;1.80;;;;;;;12.04;78.63;99346.50;5026631;28;20041;-78
2023/11/06 10:37:13;;;;;;;5.03;1.58;;;;;;;12.37;77.63;99337.44;5017691;28;20049;-78
2023/11/06 10:39:57;;;;;;;5.53;1.20;;;;;;;12.23;76.60;99333.56;5024536;28;20045;-78
2023/11/06 10:42:25;;;;;;;3.17;1.80;;;;;;;12.27;76.01;99329.06;5041076;28;20057;-80
2023/11/06 10:45:00;;;;;;;6.65;1.38;;;;;;;12.35;76.04;99340.13;5030713;28;20041;-79
2023/11/06 10:47:34;;;;;;;9.00;1.73;;;;;;;12.53;76.06;99340.38;5035170;28;20118;-79
2023/11/06 10:50:11;;;;;;;5.18;1.98;;;;;;;12.26;75.74;99329.13;5030767;28;20128;-81
2023/11/06 10:52:40;;;;;;;8.98;2.03;;;;;;;12.23;75.92;99337.97;5026277;28;20132;-79
2023/11/06 10:55:08;;;;;;;7.53;1.48;;;;;;;12.09;75.91;99322.72;5013507;28;20512;-82
2023/11/06 10:57:39;;;;;;;6.22;1.38;;;;;;;12.04;76.06;99330.75;5033656;28;20037;-80
2023/11/06 11:00:10;;;;;;;8.48;1.90;;;;;;;11.96;75.45;99327.56;5024621;28;21550;-80
2023/11/06 11:02:50;;;;;;;5.32;1.35;;;;;;;11.95;75.81;99325.84;5019237;28;20060;-80
2023/11/06 11:05:18;;;;;;;5.20;1.23;;;;;;;11.92;75.21;99324.16;5028273;28;20053;-79
2023/11/06 11:07:47;;;;;;;6.70;2.05;;;;;;;11.86;75.96;99328.75;5036966;28;20049;-79
2023/11/06 11:10:19;;;;;;;5.28;1.67;;;;;;;11.88;75.86;99347.94;5043654;28;20042;-78
2023/11/06 11:12:49;;;;;;;6.82;2.38;;;;;;;11.76;75.83;99346.59;5029590;28;20061;-77
2023/11/06 11:15:27;;;;;;;6.32;1.60;;;;;;;11.67;75.41;99325.94;5042431;28;20072;-80
2023/11/06 11:18:09;;;;;;;4.18;1.52;;;;;;;11.59;75.79;99345.41;5031174;28;20101;-77
2023/11/06 11:21:06;;;;;;;4.32;1.38;;;;;;;11.63;75.90;99345.28;5033774;28;20125;-78
2023/11/06 11:23:42;;;;;;;4.32;1.23;;;;;;;11.59;75.58;99352.44;5011937;28;20053;-80
2023/11/06 11:26:10;;;;;;;4.70;2.17;;;;;;;11.62;75.49;99348.84;5022920;28;20038;-77
2023/11/06 11:29:09;;;;;;;4.47;1.50;;;;;;;11.70;75.47;99354.66;5028620;28;20125;-79
2023/11/06 11:31:44;;;;;;;8.65;1.60;;;;;;;11.57;75.37;99359.47;5028679;28;20481;-77
2023/11/06 11:34:30;;;;;;;8.50;1.70;;;;;;;11.58;75.42;99363.81;5042585;28;20104;-79
2023/11/06 11:36:56;;;;;;;3.83;1.40;;;;;;;11.62;75.43;99370.66;5042422;28;20111;-80
2023/11/06 11:39:29;;;;;;;5.22;1.55;;;;;;;11.78;75.24;99370.97;5030704;28;20603;-80